Time;durP1;ratioP1;P1;durP2;ratioP2;P2;SDS_P1;SDS_P2;PMS_P1;PMS_P2;Temp;Humidity;BMP_temperature;BMP_pressure;BME280_temperature;BME280_humidity;BME280_pressure;Samples;Min_cycle;Max_cycle;Signal;HPM_P1;HPM_P2
2021/06/02 00:00:10;;;;;;;3.10;2.37;;;16.60;81.10;;;;;;5055686;28;20449;-50
2021/06/02 00:02:39;;;;;;;4.10;1.90;;;16.40;81.60;;;;;;5055999;28;20434;-50
2021/06/02 00:05:06;;;;;;;6.27;2.17;;;16.40;82.80;;;;;;5056060;28;20454;-51
2021/06/02 00:07:35;;;;;;;5.33;2.30;;;16.30;82.90;;;;;;5056526;28;20521;-50
2021/06/02 00:10:01;;;;;;;2.83;1.80;;;16.30;82.80;;;;;;5056081;28;20525;-51
2021/06/02 00:12:27;;;;;;;3.57;1.70;;;16.30;83.60;;;;;;5056878;28;20449;-51
2021/06/02 00:14:53;;;;;;;4.70;2.60;;;15.70;83.40;;;;;;5056171;28;20533;-51
2021/06/02 00:17:19;;;;;;;3.10;2.27;;;16.30;84.00;;;;;;5056695;28;20470;-51
2021/06/02 00:19:46;;;;;;;4.70;2.50;;;16.30;84.30;;;;;;5056024;28;20628;-51
2021/06/02 00:22:12;;;;;;;3.97;2.33;;;16.20;84.50;;;;;;5056145;28;20430;-51
2021/06/02 00:24:40;;;;;;;4.37;2.07;;;16.20;85.20;;;;;;5056251;28;20459;-51
2021/06/02 00:27:10;;;;;;;6.00;2.93;;;16.10;85.20;;;;;;5056366;28;20478;-51
2021/06/02 00:29:38;;;;;;;3.40;2.17;;;16.10;85.70;;;;;;5054651;28;20450;-52
2021/06/02 00:32:07;;;;;;;3.47;1.97;;;16.10;86.10;;;;;;5054969;28;20469;-51
2021/06/02 00:34:34;;;;;;;3.47;2.27;;;16.00;86.80;;;;;;5054596;28;20463;-51
2021/06/02 00:37:02;;;;;;;2.63;2.00;;;16.00;87.70;;;;;;5056230;28;20486;-51
2021/06/02 00:39:29;;;;;;;4.17;2.40;;;16.00;87.90;;;;;;5055948;28;20463;-50
2021/06/02 00:41:56;;;;;;;3.87;2.00;;;16.00;88.40;;;;;;5055496;28;20440;-51
2021/06/02 00:44:23;;;;;;;4.13;2.50;;;15.90;89.00;;;;;;5056417;28;20466;-50
2021/06/02 00:46:50;;;;;;;5.30;2.27;;;15.80;89.40;;;;;;5057051;28;20427;-51
2021/06/02 00:49:23;;;;;;;5.00;3.00;;;16.00;90.00;;;;;;5055330;28;20443;-50
2021/06/02 00:51:50;;;;;;;3.27;2.40;;;15.80;89.70;;;;;;5055576;28;20468;-51
2021/06/02 00:54:17;;;;;;;5.23;3.00;;;15.80;90.20;;;;;;5055788;28;20499;-51
2021/06/02 00:56:49;;;;;;;4.30;2.97;;;15.90;90.40;;;;;;5055288;28;20471;-52
2021/06/02 00:59:20;;;;;;;2.77;2.33;;;15.80;90.50;;;;;;5055550;28;20471;-51
2021/06/02 01:01:48;;;;;;;4.97;2.83;;;16.00;90.70;;;;;;5055429;28;20511;-52
2021/06/02 01:04:16;;;;;;;5.00;2.40;;;15.90;90.70;;;;;;5057175;28;20457;-52
2021/06/02 01:06:45;;;;;;;3.20;2.40;;;15.90;90.80;;;;;;5057501;28;20435;-51
2021/06/02 01:09:11;;;;;;;4.73;2.40;;;15.80;91.00;;;;;;5056151;28;20454;-50
2021/06/02 01:11:39;;;;;;;5.17;2.70;;;16.10;91.00;;;;;;5056156;28;20947;-51
2021/06/02 01:14:06;;;;;;;4.47;2.40;;;15.80;90.90;;;;;;5054035;28;20825;-50
2021/06/02 01:16:35;;;;;;;4.63;2.37;;;15.80;91.00;;;;;;5055033;28;20474;-51
2021/06/02 01:19:02;;;;;;;4.23;2.70;;;15.80;91.20;;;;;;5055014;28;20431;-49
2021/06/02 01:21:30;;;;;;;7.93;2.93;;;15.60;91.20;;;;;;5055199;28;20431;-50
2021/06/02 01:24:01;;;;;;;5.03;2.47;;;15.60;91.80;;;;;;5054955;28;20455;-50
2021/06/02 01:26:29;;;;;;;5.23;2.50;;;15.60;91.80;;;;;;5054928;28;20427;-50
2021/06/02 01:28:56;;;;;;;5.10;3.17;;;15.70;92.10;;;;;;5054812;28;20498;-50
2021/06/02 01:31:40;;;;;;;5.73;3.60;;;15.50;92.30;;;;;;5055243;28;20430;-50
2021/06/02 01:34:18;;;;;;;3.10;2.73;;;15.40;92.60;;;;;;5055394;28;20454;-51
2021/06/02 01:37:05;;;;;;;3.30;2.67;;;15.50;93.10;;;;;;5054656;28;20477;-51
2021/06/02 01:39:51;;;;;;;7.10;3.60;;;15.70;93.40;;;;;;5054695;28;20931;-51
2021/06/02 01:42:25;;;;;;;8.30;2.90;;;15.30;93.40;;;;;;5054636;28;21172;-51
2021/06/02 01:45:41;;;;;;;5.23;3.30;;;15.20;93.50;;;;;;5052924;28;20853;-51
2021/06/02 01:48:27;;;;;;;5.30;3.30;;;15.30;93.70;;;;;;5054477;28;20438;-51
2021/06/02 01:51:26;;;;;;;4.47;3.30;;;15.10;93.70;;;;;;5047203;28;20462;-51
2021/06/02 01:54:30;;;;;;;6.00;2.90;;;15.40;94.00;;;;;;5054482;28;20537;-51
2021/06/02 01:57:33;;;;;;;6.10;3.23;;;15.30;93.90;;;;;;5054389;28;20476;-50
2021/06/02 02:00:32;;;;;;;4.20;3.43;;;15.20;94.20;;;;;;5053894;28;20444;-51
2021/06/02 02:03:31;;;;;;;7.63;3.70;;;15.20;94.40;;;;;;5054309;28;20987;-51
2021/06/02 02:06:29;;;;;;;6.80;4.00;;;15.10;94.90;;;;;;5054107;28;20584;-51
2021/06/02 02:09:04;;;;;;;6.03;3.20;;;15.00;94.90;;;;;;5053902;28;20931;-50
2021/06/02 02:11:33;;;;;;;4.00;3.50;;;14.90;95.00;;;;;;5053594;28;20426;-50
2021/06/02 02:14:26;;;;;;;6.37;3.07;;;15.00;95.10;;;;;;5053673;28;20528;-51
2021/06/02 02:16:57;;;;;;;6.53;3.10;;;15.00;95.50;;;;;;5053969;28;20996;-51
2021/06/02 02:19:42;;;;;;;8.30;3.60;;;15.20;95.60;;;;;;5053798;28;20917;-52
2021/06/02 02:22:25;;;;;;;4.60;3.57;;;14.90;95.50;;;;;;5053660;28;20818;-50
2021/06/02 02:24:56;;;;;;;6.20;4.07;;;14.80;96.20;;;;;;5054467;28;20449;-51
2021/06/02 02:27:31;;;;;;;6.63;3.60;;;14.60;96.40;;;;;;5053607;28;20436;-50
2021/06/02 02:30:04;;;;;;;7.40;4.47;;;14.70;96.70;;;;;;5054017;28;20476;-52
2021/06/02 02:32:59;;;;;;;5.67;3.80;;;14.80;97.10;;;;;;5053677;28;20839;-50
2021/06/02 02:35:39;;;;;;;6.67;4.00;;;14.70;97.90;;;;;;5053869;28;20456;-51
2021/06/02 02:38:09;;;;;;;5.80;4.77;;;14.90;97.90;;;;;;5053431;28;20507;-50
2021/06/02 02:41:02;;;;;;;6.57;4.30;;;14.80;98.10;;;;;;5054245;28;20515;-51
2021/06/02 02:43:46;;;;;;;8.10;4.80;;;14.60;98.20;;;;;;5051799;28;20488;-51
2021/06/02 02:46:21;;;;;;;6.40;4.40;;;14.60;98.60;;;;;;5052968;28;20452;-52
2021/06/02 02:48:55;;;;;;;7.80;4.80;;;14.60;98.70;;;;;;5053225;28;20520;-50
2021/06/02 02:51:28;;;;;;;6.73;4.40;;;14.60;98.90;;;;;;5053543;28;20438;-51
2021/06/02 02:54:02;;;;;;;7.53;5.10;;;14.40;99.30;;;;;;5053593;28;20850;-51
2021/06/02 02:56:39;;;;;;;6.03;4.80;;;14.30;99.30;;;;;;5053722;28;20508;-52
2021/06/02 02:59:14;;;;;;;6.80;5.30;;;14.50;99.60;;;;;;5052999;28;20444;-51
2021/06/02 03:01:48;;;;;;;7.27;5.60;;;14.40;99.80;;;;;;5053626;28;20524;-51
2021/06/02 03:04:18;;;;;;;7.27;5.33;;;14.50;99.90;;;;;;5052298;28;20480;-51
2021/06/02 03:06:48;;;;;;;8.17;5.20;;;14.70;99.90;;;;;;5051866;28;20449;-51
2021/06/02 03:09:22;;;;;;;9.80;6.23;;;14.30;99.90;;;;;;5053246;28;20459;-50
2021/06/02 03:11:53;;;;;;;8.90;6.30;;;14.10;99.90;;;;;;5053215;28;20444;-50
2021/06/02 03:14:22;;;;;;;8.97;6.40;;;14.10;99.90;;;;;;5053213;28;20459;-51
2021/06/02 03:16:55;;;;;;;8.70;6.10;;;14.10;99.90;;;;;;5053555;28;20575;-51
2021/06/02 03:19:32;;;;;;;6.77;6.07;;;14.40;99.90;;;;;;5052588;28;20430;-50
2021/06/02 03:22:03;;;;;;;8.10;6.93;;;14.10;99.90;;;;;;5052565;28;20554;-51
2021/06/02 03:24:48;;;;;;;8.47;6.30;;;14.20;99.90;;;;;;5052639;28;20455;-51
2021/06/02 03:27:19;;;;;;;8.93;6.73;;;14.30;99.90;;;;;;5052774;28;20438;-52
2021/06/02 03:29:53;;;;;;;9.93;6.27;;;14.30;99.90;;;;;;5052456;28;20424;-52
2021/06/02 03:32:51;;;;;;;9.00;6.67;;;14.20;99.90;;;;;;5053133;28;20526;-52
2021/06/02 03:35:23;;;;;;;7.43;6.10;;;14.10;99.90;;;;;;5053092;28;20454;-52
2021/06/02 03:38:01;;;;;;;7.93;6.43;;;14.40;99.90;;;;;;5053284;28;20490;-52
2021/06/02 03:40:47;;;;;;;11.40;6.40;;;14.10;99.90;;;;;;5053481;28;20429;-51
2021/06/02 03:43:19;;;;;;;9.90;8.10;;;13.90;99.90;;;;;;5053593;28;20441;-51
2021/06/02 03:46:02;;;;;;;9.53;7.23;;;13.80;99.90;;;;;;5053182;28;20728;-51
2021/06/02 03:48:37;;;;;;;9.07;7.30;;;13.50;99.90;;;;;;5052201;28;20910;-52
2021/06/02 03:51:14;;;;;;;10.63;7.57;;;14.30;99.90;;;;;;5052336;28;20436;-51
2021/06/02 03:54:11;;;;;;;9.87;7.43;;;14.10;99.90;;;;;;5053067;28;20452;-51
2021/06/02 03:57:05;;;;;;;7.40;6.60;;;14.20;99.90;;;;;;5052964;28;21067;-51
2021/06/02 03:59:40;;;;;;;7.13;6.43;;;14.10;99.90;;;;;;5053493;28;20514;-51
2021/06/02 04:02:14;;;;;;;8.47;7.57;;;13.50;99.90;;;;;;5052848;28;20435;-51
2021/06/02 04:05:03;;;;;;;10.13;6.97;;;14.60;99.90;;;;;;5052816;28;20939;-50
2021/06/02 04:07:39;;;;;;;10.20;7.57;;;14.10;99.90;;;;;;5053653;28;20433;-51
2021/06/02 04:10:08;;;;;;;8.70;6.87;;;14.00;99.90;;;;;;5055511;28;20437;-50
2021/06/02 04:12:41;;;;;;;13.80;7.00;;;14.60;99.90;;;;;;5055873;28;20435;-49
2021/06/02 04:15:08;;;;;;;10.40;7.80;;;14.30;99.90;;;;;;5056069;28;20456;-51
2021/06/02 04:17:35;;;;;;;8.53;6.30;;;14.40;99.90;;;;;;5056609;28;20485;-51
2021/06/02 04:20:05;;;;;;;11.53;6.40;;;14.20;99.90;;;;;;5056553;28;20424;-50
2021/06/02 04:22:32;;;;;;;9.30;6.97;;;14.60;99.90;;;;;;5056520;28;20441;-51
2021/06/02 04:25:01;;;;;;;11.20;7.67;;;14.20;99.90;;;;;;5054787;28;20576;-52
2021/06/02 04:27:30;;;;;;;8.70;7.17;;;14.60;99.90;;;;;;5056464;28;20524;-52
2021/06/02 04:30:03;;;;;;;12.53;6.77;;;14.50;99.90;;;;;;5055598;28;20432;-52
2021/06/02 04:32:39;;;;;;;13.80;7.57;;;14.50;99.90;;;;;;5056668;28;20438;-51
2021/06/02 04:35:08;;;;;;;8.90;6.20;;;15.00;99.90;;;;;;5054549;28;20465;-52
2021/06/02 04:37:35;;;;;;;11.80;7.60;;;15.10;99.90;;;;;;5055044;28;20500;-51
2021/06/02 04:40:05;;;;;;;12.13;6.70;;;14.60;99.90;;;;;;5054462;28;20444;-52
2021/06/02 04:42:35;;;;;;;9.93;6.70;;;15.20;99.90;;;;;;5055543;28;20449;-50
2021/06/02 04:45:02;;;;;;;9.37;7.00;;;15.00;99.90;;;;;;5054078;22;20606;-49
2021/06/02 04:47:32;;;;;;;10.73;6.60;;;15.40;99.90;;;;;;5032448;28;20790;-48
2021/06/02 04:50:10;;;;;;;10.60;7.87;;;15.30;99.90;;;;;;5032174;28;20432;-49
2021/06/02 04:53:13;;;;;;;11.27;6.70;;;15.40;99.90;;;;;;5032413;28;20432;-48
2021/06/02 04:56:10;;;;;;;8.87;6.20;;;15.40;99.90;;;;;;5031766;28;20462;-49
2021/06/02 04:58:57;;;;;;;11.23;6.40;;;15.20;99.90;;;;;;5031750;28;20434;-48
2021/06/02 05:01:54;;;;;;;9.50;6.60;;;15.50;99.90;;;;;;5032040;28;20438;-49
2021/06/02 05:04:55;;;;;;;10.60;5.97;;;15.20;99.90;;;;;;5019726;28;20487;-48
2021/06/02 05:07:48;;;;;;;7.07;6.10;;;15.40;99.90;;;;;;5031989;28;20870;-48
2021/06/02 05:10:54;;;;;;;10.40;6.27;;;15.50;99.90;;;;;;5031496;28;20504;-49
2021/06/02 05:14:12;;;;;;;10.13;6.60;;;15.40;99.90;;;;;;5006309;28;20439;-49
2021/06/02 05:17:09;;;;;;;9.13;6.60;;;15.80;99.90;;;;;;4987562;28;20502;-48
2021/06/02 05:20:19;;;;;;;10.23;5.90;;;15.30;99.90;;;;;;5031256;28;20524;-49
2021/06/02 05:23:29;;;;;;;8.40;6.33;;;15.70;99.90;;;;;;4983563;28;20451;-49
2021/06/02 05:26:23;;;;;;;7.57;6.03;;;15.70;99.90;;;;;;5031407;28;20525;-49
2021/06/02 05:29:09;;;;;;;8.00;5.97;;;15.60;99.90;;;;;;5031179;28;20447;-49
2021/06/02 05:32:04;;;;;;;10.20;6.83;;;15.70;99.90;;;;;;5031488;28;20439;-49
2021/06/02 05:34:58;;;;;;;9.43;6.20;;;15.80;99.90;;;;;;5031154;28;20469;-49
2021/06/02 05:37:55;;;;;;;7.60;6.33;;;15.60;99.90;;;;;;5031150;28;20480;-49
2021/06/02 05:40:45;;;;;;;11.27;6.40;;;15.90;99.90;;;;;;5030932;28;20428;-49
2021/06/02 05:43:56;;;;;;;7.30;6.50;;;16.00;99.90;;;;;;5030662;28;20447;-49
2021/06/02 05:47:01;;;;;;;8.63;6.30;;;16.00;99.90;;;;;;5030818;28;20515;-49
2021/06/02 05:49:47;;;;;;;8.80;5.90;;;16.00;99.90;;;;;;5030972;28;20442;-49
2021/06/02 05:52:30;;;;;;;9.43;6.40;;;16.00;99.90;;;;;;5030958;28;20435;-50
2021/06/02 05:55:34;;;;;;;6.90;5.87;;;15.80;99.90;;;;;;5030730;28;20481;-49
2021/06/02 05:58:42;;;;;;;8.43;7.00;;;16.10;99.90;;;;;;5028975;28;21012;-50
2021/06/02 06:01:47;;;;;;;10.93;6.00;;;15.80;99.90;;;;;;5030304;28;20454;-50
2021/06/02 06:04:59;;;;;;;7.53;5.57;;;16.40;99.90;;;;;;5030687;28;20490;-50
2021/06/02 06:08:04;;;;;;;8.00;5.40;;;16.40;99.90;;;;;;5030566;28;20459;-50
2021/06/02 06:11:04;;;;;;;8.00;6.40;;;16.40;99.90;;;;;;5030843;28;20519;-50
2021/06/02 06:14:06;;;;;;;7.27;6.13;;;16.60;99.90;;;;;;5030403;28;20436;-50
2021/06/02 06:16:56;;;;;;;7.40;5.70;;;16.90;99.90;;;;;;5030560;28;20478;-50
2021/06/02 06:19:53;;;;;;;11.80;6.37;;;17.20;99.90;;;;;;5028635;28;20561;-50
2021/06/02 06:22:35;;;;;;;10.60;6.93;;;17.20;99.90;;;;;;5030435;28;20435;-50
2021/06/02 06:25:06;;;;;;;7.43;5.63;;;17.20;99.90;;;;;;5030264;28;20458;-48
2021/06/02 06:27:39;;;;;;;7.50;5.13;;;17.10;99.90;;;;;;5029658;28;20432;-50
2021/06/02 06:30:09;;;;;;;6.57;5.97;;;17.30;99.90;;;;;;5029410;28;20527;-50
2021/06/02 06:32:38;;;;;;;10.53;7.57;;;17.50;99.90;;;;;;5029911;28;20518;-49
2021/06/02 06:35:06;;;;;;;10.63;9.53;;;17.40;99.90;;;;;;5030587;28;20451;-50
2021/06/02 06:37:37;;;;;;;7.43;5.40;;;17.50;99.90;;;;;;5030447;28;20839;-50
2021/06/02 06:40:05;;;;;;;8.90;5.90;;;17.60;99.90;;;;;;5029906;28;20490;-52
2021/06/02 06:42:39;;;;;;;10.80;5.43;;;17.80;99.90;;;;;;5029959;28;20450;-51
2021/06/02 06:45:10;;;;;;;9.13;5.57;;;17.70;99.90;;;;;;5029780;28;20475;-49
2021/06/02 06:47:37;;;;;;;6.83;5.27;;;17.90;99.90;;;;;;5030164;28;20445;-49
2021/06/02 06:50:08;;;;;;;10.47;5.60;;;17.80;99.70;;;;;;5029793;28;20505;-49
2021/06/02 06:52:35;;;;;;;9.57;5.80;;;18.20;99.60;;;;;;5029779;28;20658;-49
2021/06/02 06:55:04;;;;;;;6.40;5.20;;;18.20;99.80;;;;;;5029865;28;20452;-49
2021/06/02 06:57:32;;;;;;;7.23;6.03;;;18.70;99.30;;;;;;5028435;28;20503;-49
2021/06/02 07:00:02;;;;;;;8.27;5.67;;;19.00;99.00;;;;;;5029418;28;21017;-49
2021/06/02 07:02:29;;;;;;;10.93;6.20;;;18.80;98.80;;;;;;5029972;28;20846;-49
2021/06/02 07:04:57;;;;;;;6.53;5.13;;;18.80;98.60;;;;;;5029935;28;20456;-50
2021/06/02 07:07:25;;;;;;;9.57;5.10;;;19.00;98.50;;;;;;5029983;28;20435;-50
2021/06/02 07:09:52;;;;;;;6.90;5.07;;;18.90;98.40;;;;;;5029439;28;20517;-50
2021/06/02 07:12:25;;;;;;;8.90;5.10;;;19.10;98.30;;;;;;5029514;28;20592;-50
2021/06/02 07:14:54;;;;;;;8.90;5.80;;;18.80;97.90;;;;;;5029453;28;20569;-50
2021/06/02 07:17:23;;;;;;;12.43;5.60;;;19.10;97.90;;;;;;5029279;28;20561;-49
2021/06/02 07:19:57;;;;;;;12.50;5.27;;;19.20;97.80;;;;;;5028018;28;20929;-49
2021/06/02 07:22:24;;;;;;;9.20;5.67;;;18.60;97.40;;;;;;5029715;28;20437;-49
2021/06/02 07:24:53;;;;;;;10.57;6.33;;;19.40;97.70;;;;;;5029379;28;20454;-49
2021/06/02 07:27:20;;;;;;;14.57;6.77;;;19.10;97.30;;;;;;5029748;28;20440;-49
2021/06/02 07:29:46;;;;;;;8.77;6.17;;;19.10;97.20;;;;;;5029817;28;20920;-49
2021/06/02 07:32:13;;;;;;;7.50;5.83;;;19.20;97.40;;;;;;5028054;28;21034;-49
2021/06/02 07:34:40;;;;;;;7.87;5.70;;;18.90;97.20;;;;;;5029762;28;20454;-49
2021/06/02 07:37:06;;;;;;;6.00;5.07;;;19.10;97.50;;;;;;5028330;28;20573;-49
2021/06/02 07:39:33;;;;;;;9.43;6.07;;;18.70;97.40;;;;;;5029606;28;20442;-49
2021/06/02 07:41:59;;;;;;;10.90;5.60;;;18.70;97.40;;;;;;5032474;28;20540;-49
2021/06/02 07:44:25;;;;;;;9.10;7.10;;;18.70;97.40;;;;;;5033099;28;20474;-50
2021/06/02 07:46:52;;;;;;;7.97;5.80;;;18.60;97.30;;;;;;5032194;28;20459;-50
2021/06/02 07:49:18;;;;;;;7.20;5.33;;;18.90;97.30;;;;;;5033301;28;20453;-50
2021/06/02 07:51:51;;;;;;;8.10;5.70;;;18.90;97.30;;;;;;5033359;28;20781;-50
2021/06/02 07:54:18;;;;;;;12.60;6.17;;;18.80;97.30;;;;;;5033875;28;20499;-50
2021/06/02 07:56:44;;;;;;;7.73;5.30;;;19.00;97.50;;;;;;5033233;28;20982;-50
2021/06/02 07:59:10;;;;;;;13.27;6.10;;;18.60;97.30;;;;;;5032691;28;20503;-50
2021/06/02 08:01:36;;;;;;;8.00;5.73;;;18.60;97.70;;;;;;5033118;28;20968;-50
2021/06/02 08:04:02;;;;;;;6.17;5.10;;;18.90;98.10;;;;;;5033008;28;20787;-50
2021/06/02 08:06:29;;;;;;;6.10;5.47;;;19.00;97.80;;;;;;5033091;28;20428;-50
2021/06/02 08:08:56;;;;;;;8.40;5.90;;;18.90;97.70;;;;;;5032799;28;20446;-50
2021/06/02 08:11:22;;;;;;;11.17;6.27;;;19.00;97.80;;;;;;5032612;28;20451;-50
2021/06/02 08:13:49;;;;;;;8.10;5.80;;;19.10;97.90;;;;;;5032794;28;20462;-50
2021/06/02 08:16:15;;;;;;;7.97;5.67;;;18.90;98.00;;;;;;5032486;28;20441;-51
2021/06/02 08:18:41;;;;;;;8.43;6.57;;;18.90;98.00;;;;;;5032727;28;20503;-48
2021/06/02 08:21:08;;;;;;;6.73;6.00;;;19.00;98.00;;;;;;5032577;28;20745;-49
2021/06/02 08:23:35;;;;;;;7.50;6.27;;;19.00;98.00;;;;;;5032494;28;20526;-49
2021/06/02 08:26:02;;;;;;;8.23;7.20;;;18.80;98.00;;;;;;5032235;28;20430;-49
2021/06/02 08:28:29;;;;;;;10.07;6.50;;;18.70;97.90;;;;;;5032364;28;20442;-48
2021/06/02 08:30:55;;;;;;;8.10;7.30;;;18.90;98.10;;;;;;5032151;28;20441;-49
2021/06/02 08:33:21;;;;;;;8.00;6.43;;;18.90;98.10;;;;;;5031439;28;20450;-49
2021/06/02 08:35:47;;;;;;;5.90;5.30;;;19.20;98.30;;;;;;5032448;28;20546;-49
2021/06/02 08:38:13;;;;;;;8.77;6.10;;;19.20;98.20;;;;;;5032297;28;20490;-49
2021/06/02 08:40:39;;;;;;;7.10;5.80;;;19.10;97.90;;;;;;5032761;28;20457;-49
2021/06/02 08:43:07;;;;;;;7.80;6.40;;;19.40;98.00;;;;;;5032639;28;20516;-49
2021/06/02 08:45:33;;;;;;;10.90;6.33;;;19.50;97.80;;;;;;5031047;28;20470;-49
2021/06/02 08:47:59;;;;;;;7.87;6.27;;;19.00;97.20;;;;;;5032218;28;20451;-49
2021/06/02 08:50:26;;;;;;;6.13;5.63;;;19.60;97.40;;;;;;5032403;28;20479;-50
2021/06/02 08:52:52;;;;;;;10.70;5.87;;;19.60;97.20;;;;;;5031500;28;20492;-49
2021/06/02 08:55:20;;;;;;;11.20;6.37;;;19.70;97.20;;;;;;5031849;28;20457;-51
2021/06/02 08:57:48;;;;;;;8.50;5.93;;;19.30;96.90;;;;;;5032286;28;20782;-49
2021/06/02 09:00:17;;;;;;;6.70;5.90;;;19.60;96.70;;;;;;5031632;28;20434;-51
2021/06/02 09:02:47;;;;;;;9.70;6.03;;;19.60;96.50;;;;;;5032306;28;20828;-49
2021/06/02 09:05:15;;;;;;;7.87;6.90;;;19.30;96.20;;;;;;5032261;28;20448;-49
2021/06/02 09:07:42;;;;;;;8.03;6.30;;;19.40;96.00;;;;;;5032406;28;20452;-49
2021/06/02 09:10:10;;;;;;;8.83;7.23;;;19.70;96.10;;;;;;5031763;28;20442;-50
2021/06/02 09:12:38;;;;;;;7.33;6.30;;;19.80;96.10;;;;;;5030724;28;20994;-50
2021/06/02 09:15:07;;;;;;;8.07;5.73;;;19.50;95.90;;;;;;5032006;28;20462;-50
2021/06/02 09:17:47;;;;;;;7.10;6.00;;;19.40;95.80;;;;;;5032145;28;20590;-49
2021/06/02 09:20:13;;;;;;;9.90;6.60;;;19.70;96.20;;;;;;5031467;28;20958;-50
2021/06/02 09:22:40;;;;;;;7.17;5.73;;;19.60;95.90;;;;;;5031595;28;20967;-50
2021/06/02 09:25:07;;;;;;;11.00;6.83;;;19.40;95.90;;;;;;5031726;28;20545;-50
2021/06/02 09:27:49;;;;;;;7.70;6.43;;;19.80;96.00;;;;;;5030142;28;20451;-50
2021/06/02 09:30:17;;;;;;;10.10;6.70;;;19.70;96.00;;;;;;5031299;28;20488;-49
2021/06/02 09:32:47;;;;;;;7.43;6.73;;;19.70;96.10;;;;;;5031280;28;20904;-50
2021/06/02 09:35:14;;;;;;;7.13;6.40;;;20.00;96.20;;;;;;5031389;28;20625;-49
2021/06/02 09:37:49;;;;;;;9.27;7.07;;;20.00;96.00;;;;;;5031126;28;20563;-49
2021/06/02 09:40:23;;;;;;;10.20;6.63;;;19.90;95.90;;;;;;5031274;28;20539;-50
2021/06/02 09:42:49;;;;;;;9.03;6.80;;;20.30;96.10;;;;;;5030475;28;20468;-50
2021/06/02 09:45:16;;;;;;;10.53;7.37;;;19.90;95.90;;;;;;5031608;28;20470;-51
2021/06/02 09:47:43;;;;;;;7.03;6.33;;;20.10;96.00;;;;;;5031865;28;20444;-51
2021/06/02 09:50:13;;;;;;;12.33;7.13;;;20.10;96.20;;;;;;5031126;28;20833;-49
2021/06/02 09:52:42;;;;;;;13.13;7.10;;;20.20;96.20;;;;;;5031109;28;20585;-49
2021/06/02 09:55:14;;;;;;;11.90;6.40;;;20.40;96.30;;;;;;5031181;28;20463;-49
2021/06/02 09:57:40;;;;;;;9.13;6.23;;;20.10;95.60;;;;;;5031393;28;20877;-50
2021/06/02 10:00:08;;;;;;;9.50;6.30;;;20.40;95.30;;;;;;5030796;28;20468;-49
2021/06/02 10:02:42;;;;;;;8.43;6.27;;;20.40;95.00;;;;;;5031019;28;20804;-49
2021/06/02 10:05:12;;;;;;;7.83;6.60;;;20.40;94.80;;;;;;5030092;28;20476;-50
2021/06/02 10:07:45;;;;;;;12.33;6.77;;;20.60;94.80;;;;;;5030949;28;20436;-49
2021/06/02 10:10:14;;;;;;;8.17;5.80;;;20.40;94.60;;;;;;5030397;28;20842;-50
2021/06/02 10:12:56;;;;;;;8.03;5.93;;;20.60;94.00;;;;;;5030674;28;20443;-49
2021/06/02 10:15:27;;;;;;;9.30;5.30;;;20.70;93.40;;;;;;5030428;28;20463;-50
2021/06/02 10:17:53;;;;;;;12.57;5.23;;;20.80;92.40;;;;;;5030601;28;20481;-50
2021/06/02 10:20:21;;;;;;;6.00;5.00;;;20.90;91.80;;;;;;5030548;28;20424;-50
2021/06/02 10:22:51;;;;;;;5.37;4.87;;;20.60;90.90;;;;;;5030337;28;20477;-50
2021/06/02 10:25:17;;;;;;;6.47;5.60;;;21.10;90.90;;;;;;5030529;28;20765;-50
2021/06/02 10:27:44;;;;;;;6.27;5.20;;;21.10;90.80;;;;;;5030229;28;20950;-49
2021/06/02 10:30:12;;;;;;;5.80;5.20;;;21.10;90.80;;;;;;5029834;28;20443;-50
2021/06/02 10:32:39;;;;;;;6.83;5.27;;;21.20;90.80;;;;;;5030389;28;20444;-50
2021/06/02 10:35:07;;;;;;;6.23;5.50;;;20.90;90.30;;;;;;5030137;28;20483;-50
2021/06/02 10:37:40;;;;;;;7.80;5.63;;;21.00;90.10;;;;;;5030266;28;20495;-50
2021/06/02 10:40:10;;;;;;;7.33;5.40;;;20.90;90.00;;;;;;5029577;28;20509;-50
2021/06/02 10:42:40;;;;;;;5.27;4.77;;;21.00;90.20;;;;;;5030359;28;20449;-50
2021/06/02 10:45:15;;;;;;;7.23;5.40;;;21.10;89.60;;;;;;5053834;22;20583;-51
2021/06/02 10:47:42;;;;;;;9.63;6.00;;;21.10;88.90;;;;;;5051101;28;20510;-51
2021/06/02 10:50:31;;;;;;;5.80;4.60;;;21.10;88.40;;;;;;5050647;28;20924;-49
2021/06/02 10:53:00;;;;;;;5.90;4.73;;;21.40;88.70;;;;;;5050949;28;20434;-50
2021/06/02 10:55:42;;;;;;;6.53;5.30;;;21.20;88.40;;;;;;5050823;28;20827;-49
2021/06/02 10:58:26;;;;;;;7.97;4.60;;;21.30;87.90;;;;;;5050662;28;20484;-48
2021/06/02 11:01:08;;;;;;;6.47;5.30;;;21.30;87.40;;;;;;5050885;28;20837;-49
2021/06/02 11:03:36;;;;;;;6.53;5.93;;;21.10;87.10;;;;;;5051102;28;20446;-49
2021/06/02 11:06:35;;;;;;;9.97;7.00;;;21.70;87.70;;;;;;5050796;28;20827;-50
2021/06/02 11:09:17;;;;;;;8.80;4.60;;;20.90;86.60;;;;;;5050407;28;20548;-49
2021/06/02 11:11:45;;;;;;;9.13;5.83;;;21.30;86.70;;;;;;5051223;28;20968;-49
2021/06/02 11:14:28;;;;;;;8.50;6.93;;;21.60;87.10;;;;;;5050564;28;20930;-50
2021/06/02 11:17:00;;;;;;;11.43;5.90;;;21.60;86.50;;;;;;5053052;28;20472;-50
2021/06/02 11:19:28;;;;;;;5.33;4.80;;;21.70;86.80;;;;;;5054093;28;20913;-48
2021/06/02 11:21:59;;;;;;;9.13;5.60;;;21.70;86.70;;;;;;5054484;28;20444;-48
2021/06/02 11:24:42;;;;;;;6.03;5.43;;;22.00;86.60;;;;;;5053333;28;20468;-51
2021/06/02 11:27:41;;;;;;;6.47;5.47;;;21.80;84.30;;;;;;5054844;28;20437;-49
2021/06/02 11:30:16;;;;;;;5.63;5.17;;;22.10;83.80;;;;;;5053173;28;20552;-50
2021/06/02 11:32:56;;;;;;;5.97;5.20;;;22.00;83.70;;;;;;5054495;28;20465;-50
2021/06/02 11:35:53;;;;;;;7.10;5.20;;;22.00;83.50;;;;;;5054397;28;20512;-49
2021/06/02 11:38:20;;;;;;;6.30;5.70;;;22.10;83.30;;;;;;5054292;28;20529;-48
2021/06/02 11:40:48;;;;;;;6.60;5.30;;;22.10;83.40;;;;;;5054466;28;20972;-49
2021/06/02 11:43:14;;;;;;;7.57;5.57;;;22.40;82.90;;;;;;5054438;28;20521;-49
2021/06/02 11:45:42;;;;;;;5.60;4.70;;;22.70;82.70;;;;;;5054066;28;20474;-50
2021/06/02 11:48:11;;;;;;;5.27;4.70;;;22.80;81.20;;;;;;5054069;28;20442;-50
2021/06/02 11:50:38;;;;;;;6.13;5.10;;;23.00;80.20;;;;;;5053799;28;20462;-48
2021/06/02 11:53:05;;;;;;;5.40;4.90;;;23.10;79.50;;;;;;5053838;28;20461;-49
2021/06/02 11:55:33;;;;;;;5.90;4.37;;;22.90;78.60;;;;;;5054462;28;20514;-49
2021/06/02 11:58:01;;;;;;;5.07;4.37;;;23.30;77.90;;;;;;5054080;28;20481;-50
2021/06/02 12:00:29;;;;;;;7.33;4.27;;;23.40;77.10;;;;;;5054077;28;20432;-49
2021/06/02 12:02:57;;;;;;;8.00;5.60;;;23.20;76.70;;;;;;5054025;28;20484;-50
2021/06/02 12:05:25;;;;;;;9.43;4.67;;;23.10;75.80;;;;;;5053675;28;20545;-49
2021/06/02 12:07:53;;;;;;;8.10;6.57;;;23.10;75.70;;;;;;5053737;28;20523;-50
2021/06/02 12:10:20;;;;;;;8.13;6.00;;;23.10;75.60;;;;;;5053512;28;20437;-50
2021/06/02 12:12:47;;;;;;;7.63;5.10;;;23.40;75.30;;;;;;5054213;28;20433;-48
2021/06/02 12:15:17;;;;;;;7.27;5.13;;;23.50;74.40;;;;;;5053662;28;20514;-49
2021/06/02 12:17:44;;;;;;;5.70;4.50;;;23.40;72.40;;;;;;5053172;28;20476;-54
2021/06/02 12:20:13;;;;;;;4.63;4.23;;;23.90;71.40;;;;;;5053171;28;20503;-48
2021/06/02 12:22:40;;;;;;;5.30;4.80;;;23.80;69.60;;;;;;5053930;28;20438;-49
2021/06/02 12:25:08;;;;;;;6.27;4.70;;;23.60;68.20;;;;;;5053463;28;20477;-49
2021/06/02 12:27:42;;;;;;;4.70;4.10;;;23.70;67.40;;;;;;5052150;28;20438;-48
2021/06/02 12:30:10;;;;;;;5.27;3.70;;;24.10;66.00;;;;;;5053535;28;20782;-49
2021/06/02 12:32:49;;;;;;;4.37;3.97;;;23.80;64.10;;;;;;5053710;28;20884;-49
2021/06/02 12:35:27;;;;;;;3.20;2.90;;;23.70;61.10;;;;;;5053413;28;20862;-50
2021/06/02 12:38:02;;;;;;;5.57;4.00;;;23.90;62.00;;;;;;5053414;28;20531;-50
2021/06/02 12:40:29;;;;;;;4.27;3.87;;;24.00;62.30;;;;;;5052293;28;20445;-49
2021/06/02 12:42:55;;;;;;;4.90;4.10;;;24.00;62.90;;;;;;5052947;28;20953;-49
2021/06/02 12:45:23;;;;;;;8.80;5.07;;;24.00;63.40;;;;;;5052834;28;20476;-49
2021/06/02 12:47:51;;;;;;;6.43;5.00;;;23.80;63.40;;;;;;5052789;28;20720;-50
2021/06/02 12:50:39;;;;;;;6.90;5.10;;;24.20;64.80;;;;;;5052624;28;20447;-49
2021/06/02 12:53:06;;;;;;;6.80;5.10;;;23.70;66.70;;;;;;5052892;28;20533;-49
2021/06/02 12:55:34;;;;;;;5.00;4.50;;;23.50;67.80;;;;;;5053122;28;20478;-50
2021/06/02 12:58:04;;;;;;;7.77;5.80;;;23.60;67.80;;;;;;5052443;28;21028;-50
2021/06/02 13:00:30;;;;;;;5.03;4.40;;;23.80;67.90;;;;;;5052989;28;20441;-48
2021/06/02 13:02:58;;;;;;;11.63;9.17;;;23.70;67.70;;;;;;5052996;28;20434;-49
2021/06/02 13:05:26;;;;;;;7.90;4.50;;;24.10;66.80;;;;;;5052987;28;20468;-49
2021/06/02 13:08:02;;;;;;;7.50;4.40;;;24.10;65.50;;;;;;5052703;28;20587;-50
2021/06/02 13:10:30;;;;;;;3.73;3.43;;;23.80;64.00;;;;;;5053230;28;20800;-48
2021/06/02 13:12:59;;;;;;;4.60;4.17;;;24.40;63.40;;;;;;5053101;28;20835;-50
2021/06/02 13:15:27;;;;;;;4.00;3.50;;;24.30;62.70;;;;;;5052381;28;20537;-50
2021/06/02 13:17:54;;;;;;;4.37;3.97;;;24.50;62.40;;;;;;5052340;28;20478;-50
2021/06/02 13:20:34;;;;;;;3.97;3.57;;;24.40;61.40;;;;;;5051535;28;20458;-49
2021/06/02 13:23:15;;;;;;;3.50;3.20;;;24.50;59.70;;;;;;5052922;28;20452;-51